Bloemendaal, Netherlands
Current Conditions -  °F | °C
As of 11:25 PM on Tuesday 21 Oct 2014 (Local Time) from EHAM Reporting Station
Rain Showers Rain Showers  
Wind Chill: 39°   Ceiling: 4500
Heat Index: 48°   Visibility: 6mi
Dew Point: 41°   Wind: 31mph
Humidity: 76%   Direction: 300°WNW
Pressure: 29.74"   Gusts: 46mph
Location:  52.4°N, 4.62°E
Report Text: EHAM 212125Z 30027G40KT 280V340 9999 -SHRA SCT030CB BKN04509/05 Q1007 TEMPO 6000 SHRA
Loading
Personal Weather Stations






























Interactive Weather Map
Tropical Storm Tracking
New forecast layout! Learn more

10-Day Weather Forecast

Advertisements
Track Severe Weather on mobile